WMKM/MKZ METAR and TAF weather

Enter ICAO airport designator
Station Type Date Time Source
WMKM METAR 2019/05/23 18:00 UTC NOAA

WMKM 231800Z VRB02KT 9999 FEW017CB SCT140 26/24 Q1011


Station Type Date Time Source
WMKM Decoded METAR 2019/05/23 18:00 UTC NOAA

Malacca, Malaysia (WMKM) 02-16N 102-15E 9M
May 23, 2019 - 02:00 PM EDT / 2019.05.23 1800 UTC
Wind: Variable at 2 MPH (2 KT):0
Visibility: greater than 7 mile(s):0
Sky conditions: partly cloudy
Weather: Cumulonimbus clouds observed
Temperature: 78 F (26 C)
Dew Point: 75 F (24 C)
Relative Humidity: 88%
Pressure (altimeter): 29.85 in. Hg (1011 hPa)
ob: WMKM 231800Z VRB02KT 9999 FEW017CB SCT140 26/24 Q1011
cycle: 18

Station Type Date Time Source
WMKM TAF 2019/05/23 18:00 UTC NOAA

TAF WMKM 231700Z 2318/2418 VRB03KT 9999 FEW028
BECMG 2401/2403 17005KT FEW017CB PROB30
TEMPO 2407/2411 4000 TSRA FEW010 FEW016CB SCT018
BECMG 2411/2413 VRB03KT FEW028

Example: see airport list